createdAt,value
2019-05-15T00:10:08.780Z,70.34
2019-05-15T00:12:39.757Z,70.38
2019-05-15T00:15:48.519Z,70.50
2019-05-15T00:21:28.637Z,70.86
2019-05-15T00:23:58.790Z,71.04
2019-05-15T00:26:30.076Z,71.17
2019-05-15T00:31:55.978Z,71.67
2019-05-15T00:34:25.667Z,71.77
2019-05-15T00:36:58.298Z,72.23
2019-05-15T00:39:28.432Z,72.16
2019-05-15T00:41:59.092Z,72.28
2019-05-15T00:44:30.679Z,72.57
2019-05-15T00:47:02.059Z,72.98
2019-05-15T00:49:31.435Z,72.98
2019-05-15T00:54:56.346Z,73.04
2019-05-15T00:57:28.357Z,73.21
2019-05-15T00:59:59.571Z,73.44
2019-05-15T01:03:08.905Z,73.63
2019-05-15T01:08:58.972Z,73.83
2019-05-15T01:11:28.817Z,73.86
2019-05-15T01:13:58.649Z,73.88
2019-05-15T01:16:30.516Z,73.95
2019-05-15T01:22:08.578Z,74.20
2019-05-15T01:24:38.973Z,74.18
2019-05-15T01:27:48.980Z,74.28
2019-05-15T01:33:32.379Z,74.70
2019-05-15T01:36:02.267Z,74.66
2019-05-15T01:38:50.583Z,75.01
2019-05-15T01:41:20.011Z,74.94
2019-05-15T01:43:49.821Z,75.17
2019-05-15T01:49:15.050Z,75.11
2019-05-15T01:54:53.300Z,75.19
2019-05-15T02:00:38.860Z,75.28
2019-05-15T02:06:22.922Z,75.57
2019-05-15T02:12:08.707Z,75.75
2019-05-15T02:17:42.568Z,75.68
2019-05-15T02:23:33.630Z,75.63
2019-05-15T02:26:34.399Z,75.66
2019-05-15T02:29:04.042Z,75.70
2019-05-15T02:31:33.513Z,75.59
2019-05-15T02:34:03.163Z,75.53
2019-05-15T02:36:33.035Z,75.52
2019-05-15T02:44:29.129Z,75.28
2019-05-15T02:46:59.735Z,75.49
2019-05-15T02:52:44.136Z,75.44
2019-05-15T02:58:25.598Z,75.52
2019-05-15T03:00:55.037Z,75.37
2019-05-15T03:03:24.633Z,75.24
2019-05-15T03:05:54.252Z,75.10
2019-05-15T03:08:23.641Z,75.17
2019-05-15T03:11:32.532Z,75.17
2019-05-15T03:19:49.860Z,75.73
2019-05-15T03:22:19.611Z,75.74
2019-05-15T03:33:29.728Z,75.51
2019-05-15T03:36:02.794Z,75.59
2019-05-15T03:39:09.673Z,75.50
2019-05-15T03:41:59.224Z,75.43
2019-05-15T03:44:28.936Z,75.03
2019-05-15T03:47:00.003Z,74.78
2019-05-15T03:49:29.594Z,74.63
2019-05-15T03:58:21.535Z,74.59
2019-05-15T04:00:50.165Z,74.06
2019-05-15T04:03:20.369Z,73.82
2019-05-15T04:06:01.788Z,73.53
2019-05-15T04:11:59.810Z,73.19
2019-05-15T04:14:29.721Z,72.88
2019-05-15T04:17:40.940Z,72.85
2019-05-15T04:32:30.088Z,72.11
2019-05-15T04:34:59.699Z,72.02
2019-05-15T04:37:31.091Z,71.56
2019-05-15T04:40:20.391Z,71.14
2019-05-15T04:49:24.536Z,66.84
2019-05-15T04:55:03.086Z,48.10
2019-05-15T05:01:00.834Z,44.39
2019-05-15T05:03:34.099Z,44.04
2019-05-15T05:06:03.607Z,45.26
2019-05-15T05:14:30.442Z,55.44
2019-05-15T05:17:00.004Z,57.82
2019-05-15T05:19:29.551Z,56.75
2019-05-15T05:21:58.978Z,56.56
2019-05-15T05:27:38.571Z,56.85
2019-05-15T05:30:09.971Z,56.35
2019-05-15T05:33:18.856Z,56.42
2019-05-15T05:35:48.991Z,56.45
2019-05-15T05:38:59.292Z,56.23
2019-05-15T05:44:44.625Z,56.03
2019-05-15T05:47:14.510Z,55.84
2019-05-15T05:49:44.598Z,56.12
2019-05-15T05:52:53.488Z,54.34
2019-05-15T05:55:23.017Z,53.45
2019-05-15T05:57:52.479Z,52.35
2019-05-15T06:01:01.703Z,50.72
2019-05-15T06:03:31.211Z,52.56
2019-05-15T06:06:40.090Z,52.55
2019-05-15T06:09:28.963Z,51.70
2019-05-15T06:12:09.405Z,50.95
2019-05-15T06:14:38.868Z,50.47
2019-05-15T06:17:48.174Z,49.71
2019-05-15T06:20:19.352Z,44.26
2019-05-15T06:22:48.864Z,40.36
2019-05-15T06:25:19.770Z,42.02
2019-05-15T06:31:14.775Z,41.84
2019-05-15T06:33:44.440Z,41.43
2019-05-15T06:36:13.934Z,36.85
2019-05-15T06:39:23.429Z,38.61
2019-05-15T06:44:54.778Z,40.78
2019-05-15T06:51:18.178Z,42.65
2019-05-15T06:53:49.396Z,41.23
2019-05-15T06:56:19.424Z,40.39
2019-05-15T07:02:13.898Z,41.97
2019-05-15T07:07:22.480Z,41.88
2019-05-15T07:12:40.433Z,40.31
2019-05-15T07:15:49.841Z,41.19
2019-05-15T07:18:20.406Z,41.72
2019-05-15T07:20:50.153Z,39.86
2019-05-15T07:23:58.954Z,40.44
2019-05-15T07:26:29.116Z,40.58
2019-05-15T07:28:59.771Z,37.67
2019-05-15T07:31:31.210Z,37.40
2019-05-15T07:34:00.663Z,36.96
2019-05-15T07:36:30.170Z,37.92
2019-05-15T07:39:38.840Z,34.81
2019-05-15T07:42:08.690Z,35.85
2019-05-15T07:44:39.988Z,36.44
2019-05-15T07:47:09.704Z,38.27
2019-05-15T07:52:53.436Z,36.93
2019-05-15T07:55:23.074Z,35.74
2019-05-15T07:58:31.817Z,34.14
2019-05-15T08:01:05.329Z,35.63
2019-05-15T08:03:34.093Z,34.88
2019-05-15T08:06:03.486Z,35.28
2019-05-15T08:09:12.469Z,34.18
2019-05-15T08:12:21.395Z,33.94
2019-05-15T08:14:51.961Z,34.97
2019-05-15T08:17:22.171Z,34.16
2019-05-15T08:20:30.930Z,33.05
2019-05-15T08:23:00.346Z,35.98
2019-05-15T08:25:35.169Z,34.40
2019-05-15T08:30:58.357Z,32.88
2019-05-15T08:33:28.177Z,33.57
2019-05-15T08:36:00.262Z,31.67
2019-05-15T08:38:29.706Z,33.12
2019-05-15T08:40:59.727Z,32.79
2019-05-15T08:44:08.837Z,31.97
2019-05-15T08:46:40.110Z,31.18
2019-05-15T08:49:49.106Z,32.69
2019-05-15T08:52:19.636Z,29.62
2019-05-15T08:54:49.183Z,29.95
2019-05-15T08:57:20.334Z,29.16
2019-05-15T08:59:50.452Z,30.02
2019-05-15T09:02:20.253Z,30.61
2019-05-15T09:04:49.667Z,30.42
2019-05-15T09:07:19.178Z,30.31
2019-05-15T09:09:48.857Z,30.08
2019-05-15T09:12:21.345Z,31.01
2019-05-15T09:18:12.313Z,30.90
2019-05-15T09:20:38.385Z,30.18
2019-05-15T09:23:09.079Z,30.00
2019-05-15T09:25:40.360Z,30.93
2019-05-15T09:28:10.047Z,29.46
2019-05-15T09:30:39.619Z,30.73
2019-05-15T09:36:24.721Z,31.48
2019-05-15T09:42:02.927Z,29.07
2019-05-15T09:44:32.708Z,30.34
2019-05-15T09:47:02.308Z,30.49
2019-05-15T09:49:31.975Z,30.96
2019-05-15T09:52:01.425Z,30.61
2019-05-15T09:57:29.996Z,30.40
2019-05-15T10:02:59.935Z,32.05
2019-05-15T10:06:08.602Z,30.77
2019-05-15T10:09:18.879Z,30.22
2019-05-15T10:11:52.095Z,30.60
2019-05-15T10:14:21.724Z,29.11
2019-05-15T10:20:18.399Z,29.00
2019-05-15T10:26:02.598Z,27.72
2019-05-15T10:28:32.110Z,28.77
2019-05-15T10:33:58.295Z,27.69
2019-05-15T10:36:28.768Z,28.14
2019-05-15T10:38:59.207Z,27.87
2019-05-15T10:41:30.022Z,27.49
2019-05-15T10:44:00.405Z,29.74
2019-05-15T10:46:31.455Z,29.59
2019-05-15T10:49:02.994Z,27.00
2019-05-15T10:52:11.910Z,27.60
2019-05-15T10:57:41.717Z,26.40
2019-05-15T11:03:10.103Z,26.90
2019-05-15T11:08:51.602Z,27.14
2019-05-15T11:11:21.431Z,27.30
2019-05-15T11:13:51.044Z,27.63
2019-05-15T11:16:21.232Z,27.75
2019-05-15T11:18:53.608Z,27.77
2019-05-15T11:22:03.193Z,27.44
2019-05-15T11:24:33.595Z,27.88
2019-05-15T11:27:03.033Z,28.78
2019-05-15T11:29:32.875Z,28.13
2019-05-15T11:32:41.665Z,27.77
2019-05-15T11:36:01.080Z,27.84
2019-05-15T11:41:38.631Z,27.16
2019-05-15T11:44:09.117Z,27.25
2019-05-15T11:47:18.420Z,28.07
2019-05-15T11:55:52.793Z,27.80
2019-05-15T11:58:22.260Z,28.33
2019-05-15T12:01:10.849Z,27.44
2019-05-15T12:06:42.243Z,29.21
2019-05-15T12:09:11.672Z,29.16
2019-05-15T12:12:21.362Z,28.89
2019-05-15T12:14:51.236Z,28.42
2019-05-15T12:17:20.633Z,29.51
2019-05-15T12:20:05.423Z,29.36
2019-05-15T12:25:32.018Z,29.55
2019-05-15T12:31:04.126Z,29.58
2019-05-15T12:34:12.768Z,29.56
2019-05-15T13:03:03.193Z,28.97
2019-05-15T13:05:32.762Z,29.22
2019-05-15T13:08:02.279Z,28.33
2019-05-15T13:10:31.639Z,28.05
2019-05-15T13:13:40.727Z,27.90
2019-05-15T13:19:12.669Z,25.93
2019-05-15T13:21:42.067Z,25.68
2019-05-15T13:24:11.462Z,26.31
2019-05-15T13:27:20.182Z,26.58
2019-05-15T13:30:20.015Z,26.86
2019-05-15T13:32:50.053Z,27.22
2019-05-15T13:38:22.501Z,29.79
2019-05-15T13:40:51.937Z,29.52
2019-05-15T13:46:20.599Z,30.08
2019-05-15T13:48:49.343Z,31.00
2019-05-15T13:51:18.753Z,30.48
2019-05-15T13:57:23.394Z,30.78
2019-05-15T13:59:52.910Z,31.54
2019-05-15T14:02:22.404Z,31.44
2019-05-15T14:05:31.294Z,31.47
2019-05-15T14:08:19.809Z,31.92
2019-05-15T14:13:51.209Z,31.18
2019-05-15T14:16:59.860Z,30.20
2019-05-15T14:20:09.336Z,29.86
2019-05-15T14:22:40.271Z,28.73
2019-05-15T14:25:49.207Z,28.63
2019-05-15T14:28:38.907Z,28.62
2019-05-15T14:31:20.160Z,27.97
2019-05-15T14:36:55.642Z,27.48
2019-05-15T14:39:25.312Z,27.06
2019-05-15T14:41:54.768Z,25.80
2019-05-15T14:44:24.262Z,25.84
2019-05-15T14:46:55.159Z,24.99
2019-05-15T14:52:21.154Z,25.32
2019-05-15T14:57:59.993Z,26.62
2019-05-15T15:00:34.904Z,27.47
2019-05-15T15:03:03.633Z,27.43
2019-05-15T15:05:35.255Z,27.14
2019-05-15T15:11:00.724Z,26.89
2019-05-15T15:13:32.471Z,27.49
2019-05-15T15:16:01.840Z,30.18
2019-05-15T15:18:31.466Z,31.55
2019-05-15T15:21:13.819Z,31.96
2019-05-15T15:23:43.304Z,31.37
2019-05-15T15:26:12.909Z,30.91
2019-05-15T15:29:21.411Z,30.47
2019-05-15T15:31:52.665Z,31.67
2019-05-15T15:34:22.143Z,32.50
2019-05-15T15:36:51.620Z,35.48
2019-05-15T15:39:21.082Z,37.21
2019-05-15T15:42:30.180Z,37.97
2019-05-15T15:45:01.565Z,38.04
2019-05-15T15:56:11.010Z,40.91
2019-05-15T15:58:40.386Z,41.48
2019-05-15T16:01:31.455Z,41.97
2019-05-15T16:04:01.418Z,41.95
2019-05-15T16:07:10.272Z,42.68
2019-05-15T16:09:39.744Z,42.88
2019-05-15T16:12:10.844Z,43.06
2019-05-15T16:14:40.429Z,43.28
2019-05-15T16:17:09.797Z,42.73
2019-05-15T16:19:39.382Z,43.13
2019-05-15T16:22:09.093Z,43.46
2019-05-15T16:24:38.732Z,43.65
2019-05-15T16:27:09.963Z,43.53
2019-05-15T16:29:39.860Z,43.37
2019-05-15T16:32:09.249Z,43.95
2019-05-15T16:37:34.952Z,43.88
2019-05-15T16:43:20.120Z,42.95
2019-05-15T16:45:52.271Z,43.65
2019-05-15T16:48:33.724Z,43.14
2019-05-15T16:51:03.181Z,43.09
2019-05-15T16:56:28.460Z,42.87
2019-05-15T16:58:59.860Z,43.22
2019-05-15T17:01:31.277Z,43.65
2019-05-15T17:04:02.808Z,43.59
2019-05-15T17:09:28.814Z,43.58
2019-05-15T17:18:18.202Z,43.83
2019-05-15T17:20:48.436Z,43.79
2019-05-15T17:23:20.038Z,43.81
2019-05-15T17:25:49.384Z,44.11
2019-05-15T17:31:14.022Z,44.48
2019-05-15T17:33:43.624Z,44.37
2019-05-15T17:36:13.149Z,44.45
2019-05-15T17:41:39.309Z,44.72
2019-05-15T17:44:08.909Z,44.67
2019-05-15T17:46:40.995Z,45.41
2019-05-15T17:49:15.243Z,45.43
2019-05-15T17:51:41.622Z,46.02
2019-05-15T17:54:11.184Z,46.00
2019-05-15T17:57:20.043Z,45.95
2019-05-15T18:02:45.537Z,46.53
2019-05-15T18:09:04.036Z,46.73
2019-05-15T18:14:13.837Z,47.18
2019-05-15T18:16:43.714Z,47.32
2019-05-15T18:19:15.415Z,47.32
2019-05-15T18:21:45.029Z,47.54
2019-05-15T18:27:18.535Z,47.73
2019-05-15T18:32:58.714Z,47.90
2019-05-15T18:35:29.502Z,48.14
2019-05-15T18:38:01.391Z,48.12
2019-05-15T18:40:30.877Z,48.18
2019-05-15T18:46:00.890Z,48.47
2019-05-15T18:48:30.388Z,48.61
2019-05-15T18:50:59.762Z,48.68
2019-05-15T18:56:25.372Z,49.01
2019-05-15T18:58:54.976Z,49.30
2019-05-15T19:01:24.540Z,49.46
2019-05-15T19:03:54.054Z,49.76
2019-05-15T19:06:25.197Z,49.95
2019-05-15T19:08:54.799Z,50.11
2019-05-15T19:11:24.322Z,50.49
2019-05-15T19:13:58.714Z,50.78
2019-05-15T19:19:18.444Z,51.08
2019-05-15T19:24:51.383Z,51.68
2019-05-15T19:30:29.579Z,53.08
2019-05-15T19:33:01.236Z,52.59
2019-05-15T19:35:49.783Z,53.03
2019-05-15T19:38:19.357Z,53.45
2019-05-15T19:40:48.823Z,53.70
2019-05-15T19:43:58.173Z,53.85
2019-05-15T19:46:31.222Z,54.01
2019-05-15T19:51:58.736Z,54.93
2019-05-15T19:57:39.028Z,55.57
2019-05-15T20:00:09.067Z,55.44
2019-05-15T20:02:38.612Z,55.48
2019-05-15T20:05:48.626Z,55.88
2019-05-15T20:08:19.159Z,55.98
2019-05-15T20:10:48.877Z,56.17
2019-05-15T20:13:18.523Z,56.49
2019-05-15T20:15:48.629Z,56.50
2019-05-15T20:18:19.282Z,57.86
2019-05-15T20:20:49.136Z,57.24
2019-05-15T20:26:33.864Z,57.93
2019-05-15T20:29:22.388Z,59.13
2019-05-15T20:32:31.337Z,58.82
2019-05-15T20:35:00.982Z,58.98
2019-05-15T20:40:26.217Z,58.96
2019-05-15T20:42:55.581Z,58.95
2019-05-15T20:48:53.475Z,59.37
2019-05-15T20:54:18.336Z,59.54
2019-05-15T20:56:49.020Z,59.80
2019-05-15T20:59:19.075Z,59.88
2019-05-15T21:02:09.614Z,60.96
2019-05-15T21:07:39.153Z,62.11
2019-05-15T21:16:18.788Z,61.55
2019-05-15T21:21:58.358Z,61.81
2019-05-15T21:25:08.092Z,61.70
2019-05-15T21:27:49.584Z,61.74
2019-05-15T21:41:40.695Z,63.02
2019-05-15T21:44:10.300Z,63.66
2019-05-15T21:47:19.032Z,63.47
2019-05-15T21:49:50.480Z,63.68
2019-05-15T21:52:20.632Z,63.62
2019-05-15T21:54:51.101Z,64.06
2019-05-15T21:57:32.929Z,64.24
2019-05-15T22:05:48.814Z,65.51
2019-05-15T22:11:33.209Z,64.87
2019-05-15T22:14:02.644Z,64.80
2019-05-15T22:17:11.497Z,64.43
2019-05-15T22:19:49.092Z,64.46
2019-05-15T22:22:19.367Z,64.78
2019-05-15T22:24:48.803Z,64.73
2019-05-15T22:27:21.033Z,65.12
2019-05-15T22:32:45.243Z,64.69
2019-05-15T22:35:53.915Z,65.25
2019-05-15T22:38:23.399Z,64.83
2019-05-15T22:40:52.826Z,64.54
2019-05-15T22:44:01.703Z,64.42
2019-05-15T22:49:45.809Z,63.56
2019-05-15T22:52:15.333Z,63.10
2019-05-15T22:57:48.382Z,62.78
2019-05-15T23:03:21.622Z,62.52
2019-05-15T23:05:50.930Z,62.57
2019-05-15T23:08:59.749Z,62.12
2019-05-15T23:14:32.013Z,61.47
2019-05-15T23:17:01.490Z,61.40
2019-05-15T23:19:31.186Z,61.38
2019-05-15T23:22:00.666Z,61.26
2019-05-15T23:25:09.374Z,61.24
2019-05-15T23:28:18.275Z,60.99
2019-05-15T23:30:48.618Z,61.00
2019-05-15T23:36:13.895Z,60.98
2019-05-15T23:38:43.619Z,61.08
2019-05-15T23:41:52.383Z,61.06
2019-05-15T23:47:38.464Z,61.09
2019-05-15T23:53:08.833Z,61.17
2019-05-15T23:55:38.310Z,61.12
2019-05-15T23:58:47.460Z,61.34
